WMKN/TGG METAR and TAF weather

Enter ICAO airport designator
Station Type Date Time Source
WMKN METAR 2019/02/18 04:00 UTC NOAA

WMKN 180400Z 11005KT 9999 SCT018 BKN300 30/25 Q1014


Station Type Date Time Source
WMKN Decoded METAR 2019/02/18 04:00 UTC NOAA

Station name not available
Feb 17, 2019 - 11:00 PM EST / 2019.02.18 0400 UTC
Wind: from the ESE (110 degrees) at 6 MPH (5 KT):0
Visibility: greater than 7 mile(s):0
Sky conditions: mostly cloudy
Temperature: 86 F (30 C)
Heat index: 96.8 F (36.0 C):1
Dew Point: 77 F (25 C)
Relative Humidity: 74%
Pressure (altimeter): 29.94 in. Hg (1014 hPa)
ob: WMKN 180400Z 11005KT 9999 SCT018 BKN300 30/25 Q1014
cycle: 4

Station Type Date Time Source
WMKN TAF 2019/02/17 18:00 UTC NOAA

TAF WMKN 171700Z 1718/1818 07005KT 9999 FEW022 BKN300


Example: see airport list